sensor_id;sensor_type;location;lat;lon;timestamp;P1;durP1;ratioP1;P2;durP2;ratioP2
61038;SDS011;46919;45.816;3.104;2023-04-25T00:01:03;2.10;;;1.30;;
61038;SDS011;46919;45.816;3.104;2023-04-25T00:03:30;2.58;;;1.23;;
61038;SDS011;46919;45.816;3.104;2023-04-25T00:05:56;2.38;;;1.40;;
61038;SDS011;46919;45.816;3.104;2023-04-25T00:08:23;2.47;;;1.25;;
61038;SDS011;46919;45.816;3.104;2023-04-25T00:10:49;2.55;;;1.10;;
61038;SDS011;46919;45.816;3.104;2023-04-25T00:13:15;2.35;;;1.10;;
61038;SDS011;46919;45.816;3.104;2023-04-25T00:15:42;2.55;;;1.20;;
61038;SDS011;46919;45.816;3.104;2023-04-25T00:18:08;1.15;;;1.05;;
61038;SDS011;46919;45.816;3.104;2023-04-25T00:20:34;1.48;;;1.00;;
61038;SDS011;46919;45.816;3.104;2023-04-25T00:23:00;1.15;;;0.80;;
61038;SDS011;46919;45.816;3.104;2023-04-25T00:25:26;1.33;;;0.90;;
61038;SDS011;46919;45.816;3.104;2023-04-25T00:27:51;1.83;;;1.02;;
61038;SDS011;46919;45.816;3.104;2023-04-25T00:30:17;2.80;;;1.00;;
61038;SDS011;46919;45.816;3.104;2023-04-25T00:32:42;1.73;;;0.95;;
61038;SDS011;46919;45.816;3.104;2023-04-25T00:35:08;1.38;;;1.00;;
61038;SDS011;46919;45.816;3.104;2023-04-25T00:37:34;1.52;;;1.20;;
61038;SDS011;46919;45.816;3.104;2023-04-25T00:40:00;1.73;;;0.70;;
61038;SDS011;46919;45.816;3.104;2023-04-25T00:42:25;1.15;;;1.02;;
61038;SDS011;46919;45.816;3.104;2023-04-25T00:44:52;1.60;;;1.00;;
61038;SDS011;46919;45.816;3.104;2023-04-25T00:47:18;1.98;;;1.10;;
61038;SDS011;46919;45.816;3.104;2023-04-25T00:49:43;2.00;;;1.00;;
61038;SDS011;46919;45.816;3.104;2023-04-25T00:52:09;2.08;;;1.02;;
61038;SDS011;46919;45.816;3.104;2023-04-25T00:54:35;2.30;;;1.00;;
61038;SDS011;46919;45.816;3.104;2023-04-25T00:57:00;1.83;;;1.00;;
61038;SDS011;46919;45.816;3.104;2023-04-25T00:59:26;0.90;;;0.90;;
61038;SDS011;46919;45.816;3.104;2023-04-25T01:01:53;2.05;;;1.00;;
61038;SDS011;46919;45.816;3.104;2023-04-25T01:04:18;2.42;;;1.30;;
61038;SDS011;46919;45.816;3.104;2023-04-25T01:06:45;2.08;;;1.05;;
61038;SDS011;46919;45.816;3.104;2023-04-25T01:09:10;1.83;;;1.00;;
61038;SDS011;46919;45.816;3.104;2023-04-25T01:11:36;2.95;;;1.25;;
61038;SDS011;46919;45.816;3.104;2023-04-25T01:14:01;2.17;;;1.20;;
61038;SDS011;46919;45.816;3.104;2023-04-25T01:16:27;1.55;;;1.10;;
61038;SDS011;46919;45.816;3.104;2023-04-25T01:18:52;1.30;;;1.00;;
61038;SDS011;46919;45.816;3.104;2023-04-25T01:21:19;3.20;;;1.25;;
61038;SDS011;46919;45.816;3.104;2023-04-25T01:23:45;2.65;;;1.48;;
61038;SDS011;46919;45.816;3.104;2023-04-25T01:26:12;2.88;;;1.30;;
61038;SDS011;46919;45.816;3.104;2023-04-25T01:28:38;5.50;;;1.60;;
61038;SDS011;46919;45.816;3.104;2023-04-25T01:31:08;1.98;;;1.30;;
61038;SDS011;46919;45.816;3.104;2023-04-25T01:33:34;3.28;;;1.40;;
61038;SDS011;46919;45.816;3.104;2023-04-25T01:36:00;2.47;;;1.00;;
61038;SDS011;46919;45.816;3.104;2023-04-25T01:38:25;2.45;;;1.38;;
61038;SDS011;46919;45.816;3.104;2023-04-25T01:40:51;2.40;;;1.20;;
61038;SDS011;46919;45.816;3.104;2023-04-25T01:43:17;2.50;;;1.40;;
61038;SDS011;46919;45.816;3.104;2023-04-25T01:45:43;1.40;;;1.30;;
61038;SDS011;46919;45.816;3.104;2023-04-25T01:48:09;2.38;;;1.15;;
61038;SDS011;46919;45.816;3.104;2023-04-25T01:50:36;2.40;;;1.33;;
61038;SDS011;46919;45.816;3.104;2023-04-25T01:53:03;3.08;;;1.40;;
61038;SDS011;46919;45.816;3.104;2023-04-25T01:55:29;2.97;;;1.25;;
61038;SDS011;46919;45.816;3.104;2023-04-25T01:57:55;3.40;;;1.30;;
61038;SDS011;46919;45.816;3.104;2023-04-25T02:00:20;1.85;;;1.20;;
61038;SDS011;46919;45.816;3.104;2023-04-25T02:02:46;1.67;;;1.17;;
61038;SDS011;46919;45.816;3.104;2023-04-25T02:05:11;2.13;;;1.25;;
61038;SDS011;46919;45.816;3.104;2023-04-25T02:07:37;4.07;;;1.58;;
61038;SDS011;46919;45.816;3.104;2023-04-25T02:10:02;2.53;;;1.33;;
61038;SDS011;46919;45.816;3.104;2023-04-25T02:12:28;2.60;;;1.35;;
61038;SDS011;46919;45.816;3.104;2023-04-25T02:14:54;2.72;;;1.45;;
61038;SDS011;46919;45.816;3.104;2023-04-25T02:17:19;2.30;;;1.20;;
61038;SDS011;46919;45.816;3.104;2023-04-25T02:19:46;3.75;;;1.35;;
61038;SDS011;46919;45.816;3.104;2023-04-25T02:22:12;2.65;;;1.25;;
61038;SDS011;46919;45.816;3.104;2023-04-25T02:24:37;3.30;;;1.30;;
61038;SDS011;46919;45.816;3.104;2023-04-25T02:27:03;2.17;;;1.30;;
61038;SDS011;46919;45.816;3.104;2023-04-25T02:29:29;4.75;;;1.20;;
61038;SDS011;46919;45.816;3.104;2023-04-25T02:31:55;2.78;;;1.40;;
61038;SDS011;46919;45.816;3.104;2023-04-25T02:34:20;4.10;;;1.60;;
61038;SDS011;46919;45.816;3.104;2023-04-25T02:36:45;3.55;;;1.40;;
61038;SDS011;46919;45.816;3.104;2023-04-25T02:39:11;2.03;;;1.40;;
61038;SDS011;46919;45.816;3.104;2023-04-25T02:41:36;2.50;;;1.30;;
61038;SDS011;46919;45.816;3.104;2023-04-25T02:44:02;2.55;;;1.27;;
61038;SDS011;46919;45.816;3.104;2023-04-25T02:46:27;2.35;;;1.40;;
61038;SDS011;46919;45.816;3.104;2023-04-25T02:48:53;1.40;;;1.23;;
61038;SDS011;46919;45.816;3.104;2023-04-25T02:51:18;1.67;;;1.20;;
61038;SDS011;46919;45.816;3.104;2023-04-25T02:53:44;3.97;;;1.42;;
61038;SDS011;46919;45.816;3.104;2023-04-25T02:56:09;2.53;;;1.42;;
61038;SDS011;46919;45.816;3.104;2023-04-25T02:58:35;2.58;;;1.40;;
61038;SDS011;46919;45.816;3.104;2023-04-25T03:01:00;1.30;;;1.20;;
61038;SDS011;46919;45.816;3.104;2023-04-25T03:03:26;1.45;;;1.10;;
61038;SDS011;46919;45.816;3.104;2023-04-25T03:05:51;2.40;;;1.30;;
61038;SDS011;46919;45.816;3.104;2023-04-25T03:08:17;2.35;;;1.35;;
61038;SDS011;46919;45.816;3.104;2023-04-25T03:10:43;4.78;;;1.20;;
61038;SDS011;46919;45.816;3.104;2023-04-25T03:13:09;1.98;;;1.25;;
61038;SDS011;46919;45.816;3.104;2023-04-25T03:15:35;1.92;;;1.05;;
61038;SDS011;46919;45.816;3.104;2023-04-25T03:18:01;2.55;;;1.35;;
61038;SDS011;46919;45.816;3.104;2023-04-25T03:20:27;2.28;;;1.35;;
61038;SDS011;46919;45.816;3.104;2023-04-25T03:22:52;3.47;;;1.58;;
61038;SDS011;46919;45.816;3.104;2023-04-25T03:25:18;2.13;;;1.23;;
61038;SDS011;46919;45.816;3.104;2023-04-25T03:27:43;2.45;;;1.30;;
61038;SDS011;46919;45.816;3.104;2023-04-25T03:30:09;1.58;;;1.20;;
61038;SDS011;46919;45.816;3.104;2023-04-25T03:32:35;2.42;;;1.27;;
61038;SDS011;46919;45.816;3.104;2023-04-25T03:35:00;2.00;;;1.20;;
61038;SDS011;46919;45.816;3.104;2023-04-25T03:37:26;1.90;;;1.05;;
61038;SDS011;46919;45.816;3.104;2023-04-25T03:39:51;2.50;;;1.40;;
61038;SDS011;46919;45.816;3.104;2023-04-25T03:42:17;2.65;;;1.17;;
61038;SDS011;46919;45.816;3.104;2023-04-25T03:44:42;4.75;;;1.65;;
61038;SDS011;46919;45.816;3.104;2023-04-25T03:47:08;2.58;;;1.50;;
61038;SDS011;46919;45.816;3.104;2023-04-25T03:49:34;2.13;;;1.50;;
61038;SDS011;46919;45.816;3.104;2023-04-25T03:52:00;3.03;;;1.42;;
61038;SDS011;46919;45.816;3.104;2023-04-25T03:54:26;2.90;;;1.52;;
61038;SDS011;46919;45.816;3.104;2023-04-25T03:56:51;4.38;;;2.13;;
61038;SDS011;46919;45.816;3.104;2023-04-25T03:59:16;3.58;;;1.60;;
61038;SDS011;46919;45.816;3.104;2023-04-25T04:01:42;1.88;;;1.60;;
61038;SDS011;46919;45.816;3.104;2023-04-25T04:04:07;3.30;;;1.77;;
61038;SDS011;46919;45.816;3.104;2023-04-25T04:06:33;3.33;;;1.70;;
61038;SDS011;46919;45.816;3.104;2023-04-25T04:08:58;3.45;;;1.98;;
61038;SDS011;46919;45.816;3.104;2023-04-25T04:11:24;4.60;;;2.20;;
61038;SDS011;46919;45.816;3.104;2023-04-25T04:13:50;5.30;;;1.70;;
61038;SDS011;46919;45.816;3.104;2023-04-25T04:16:15;2.65;;;1.83;;
61038;SDS011;46919;45.816;3.104;2023-04-25T04:18:41;4.32;;;2.10;;
61038;SDS011;46919;45.816;3.104;2023-04-25T04:21:06;4.13;;;1.90;;
61038;SDS011;46919;45.816;3.104;2023-04-25T04:23:31;4.00;;;1.80;;
61038;SDS011;46919;45.816;3.104;2023-04-25T04:25:57;3.58;;;2.13;;
61038;SDS011;46919;45.816;3.104;2023-04-25T04:28:22;3.78;;;1.80;;
61038;SDS011;46919;45.816;3.104;2023-04-25T04:30:48;3.22;;;2.08;;
61038;SDS011;46919;45.816;3.104;2023-04-25T04:33:16;2.75;;;2.00;;
61038;SDS011;46919;45.816;3.104;2023-04-25T04:35:44;4.22;;;2.10;;
61038;SDS011;46919;45.816;3.104;2023-04-25T04:38:09;3.80;;;1.92;;
61038;SDS011;46919;45.816;3.104;2023-04-25T04:40:36;4.32;;;2.15;;
61038;SDS011;46919;45.816;3.104;2023-04-25T04:43:02;4.35;;;2.40;;
61038;SDS011;46919;45.816;3.104;2023-04-25T04:45:28;5.00;;;2.38;;
61038;SDS011;46919;45.816;3.104;2023-04-25T04:47:53;3.28;;;2.17;;
61038;SDS011;46919;45.816;3.104;2023-04-25T04:50:20;3.55;;;2.20;;
61038;SDS011;46919;45.816;3.104;2023-04-25T04:52:45;5.13;;;2.33;;
61038;SDS011;46919;45.816;3.104;2023-04-25T04:55:11;6.25;;;2.35;;
61038;SDS011;46919;45.816;3.104;2023-04-25T04:57:36;5.82;;;2.50;;
61038;SDS011;46919;45.816;3.104;2023-04-25T05:00:04;5.00;;;2.47;;
61038;SDS011;46919;45.816;3.104;2023-04-25T05:02:35;5.30;;;3.03;;
61038;SDS011;46919;45.816;3.104;2023-04-25T05:05:00;6.22;;;2.67;;
61038;SDS011;46919;45.816;3.104;2023-04-25T05:07:26;4.72;;;2.30;;
61038;SDS011;46919;45.816;3.104;2023-04-25T05:09:51;3.35;;;2.53;;
61038;SDS011;46919;45.816;3.104;2023-04-25T05:12:17;5.13;;;2.45;;
61038;SDS011;46919;45.816;3.104;2023-04-25T05:14:42;5.07;;;2.65;;
61038;SDS011;46919;45.816;3.104;2023-04-25T05:17:07;5.93;;;2.75;;
61038;SDS011;46919;45.816;3.104;2023-04-25T05:19:33;6.65;;;2.90;;
61038;SDS011;46919;45.816;3.104;2023-04-25T05:21:59;5.97;;;2.83;;
61038;SDS011;46919;45.816;3.104;2023-04-25T05:24:25;5.88;;;2.47;;
61038;SDS011;46919;45.816;3.104;2023-04-25T05:26:50;3.72;;;2.50;;
61038;SDS011;46919;45.816;3.104;2023-04-25T05:29:15;6.32;;;2.60;;
61038;SDS011;46919;45.816;3.104;2023-04-25T05:31:41;2.88;;;2.33;;
61038;SDS011;46919;45.816;3.104;2023-04-25T05:34:06;4.93;;;2.75;;
61038;SDS011;46919;45.816;3.104;2023-04-25T05:36:32;5.95;;;2.95;;
61038;SDS011;46919;45.816;3.104;2023-04-25T05:38:57;5.63;;;2.80;;
61038;SDS011;46919;45.816;3.104;2023-04-25T05:41:23;5.45;;;2.72;;
61038;SDS011;46919;45.816;3.104;2023-04-25T05:43:48;5.65;;;2.80;;
61038;SDS011;46919;45.816;3.104;2023-04-25T05:46:14;5.30;;;2.70;;
61038;SDS011;46919;45.816;3.104;2023-04-25T05:48:42;6.72;;;3.08;;
61038;SDS011;46919;45.816;3.104;2023-04-25T05:51:07;5.95;;;2.85;;
61038;SDS011;46919;45.816;3.104;2023-04-25T05:53:32;8.40;;;2.92;;
61038;SDS011;46919;45.816;3.104;2023-04-25T05:55:58;5.30;;;2.50;;
61038;SDS011;46919;45.816;3.104;2023-04-25T05:58:23;9.52;;;2.80;;
61038;SDS011;46919;45.816;3.104;2023-04-25T06:00:49;7.45;;;2.75;;
61038;SDS011;46919;45.816;3.104;2023-04-25T06:03:14;5.25;;;3.00;;
61038;SDS011;46919;45.816;3.104;2023-04-25T06:05:41;6.85;;;2.90;;
61038;SDS011;46919;45.816;3.104;2023-04-25T06:08:07;7.22;;;2.95;;
61038;SDS011;46919;45.816;3.104;2023-04-25T06:10:32;6.20;;;3.20;;
61038;SDS011;46919;45.816;3.104;2023-04-25T06:12:58;6.82;;;3.20;;
61038;SDS011;46919;45.816;3.104;2023-04-25T06:15:23;5.00;;;2.60;;
61038;SDS011;46919;45.816;3.104;2023-04-25T06:17:49;6.00;;;2.85;;
61038;SDS011;46919;45.816;3.104;2023-04-25T06:20:14;5.03;;;3.30;;
61038;SDS011;46919;45.816;3.104;2023-04-25T06:22:39;7.80;;;2.80;;
61038;SDS011;46919;45.816;3.104;2023-04-25T06:25:05;5.85;;;2.50;;
61038;SDS011;46919;45.816;3.104;2023-04-25T06:27:32;3.90;;;2.40;;
61038;SDS011;46919;45.816;3.104;2023-04-25T06:29:58;6.60;;;2.22;;
61038;SDS011;46919;45.816;3.104;2023-04-25T06:32:23;5.57;;;2.20;;
61038;SDS011;46919;45.816;3.104;2023-04-25T06:34:49;3.15;;;1.65;;
61038;SDS011;46919;45.816;3.104;2023-04-25T06:37:14;4.97;;;2.30;;
61038;SDS011;46919;45.816;3.104;2023-04-25T06:39:39;4.82;;;2.03;;
61038;SDS011;46919;45.816;3.104;2023-04-25T06:42:05;5.55;;;1.90;;
61038;SDS011;46919;45.816;3.104;2023-04-25T06:44:30;4.32;;;2.05;;
61038;SDS011;46919;45.816;3.104;2023-04-25T06:46:56;2.22;;;1.60;;
61038;SDS011;46919;45.816;3.104;2023-04-25T06:49:21;3.83;;;1.70;;
61038;SDS011;46919;45.816;3.104;2023-04-25T06:51:47;3.45;;;1.60;;
61038;SDS011;46919;45.816;3.104;2023-04-25T06:54:13;4.03;;;1.60;;
61038;SDS011;46919;45.816;3.104;2023-04-25T06:56:38;4.85;;;1.65;;
61038;SDS011;46919;45.816;3.104;2023-04-25T06:59:03;3.45;;;1.58;;
61038;SDS011;46919;45.816;3.104;2023-04-25T07:01:29;3.95;;;1.30;;
61038;SDS011;46919;45.816;3.104;2023-04-25T07:03:55;2.78;;;1.33;;
61038;SDS011;46919;45.816;3.104;2023-04-25T07:06:20;3.95;;;1.13;;
61038;SDS011;46919;45.816;3.104;2023-04-25T07:08:45;6.00;;;1.50;;
61038;SDS011;46919;45.816;3.104;2023-04-25T07:11:11;3.10;;;1.10;;
61038;SDS011;46919;45.816;3.104;2023-04-25T07:13:36;4.28;;;1.35;;
61038;SDS011;46919;45.816;3.104;2023-04-25T07:16:02;2.65;;;1.02;;
61038;SDS011;46919;45.816;3.104;2023-04-25T07:18:28;3.20;;;1.40;;
61038;SDS011;46919;45.816;3.104;2023-04-25T07:20:53;3.50;;;1.35;;
61038;SDS011;46919;45.816;3.104;2023-04-25T07:23:19;5.72;;;1.38;;
61038;SDS011;46919;45.816;3.104;2023-04-25T07:25:45;5.25;;;1.20;;
61038;SDS011;46919;45.816;3.104;2023-04-25T07:28:11;6.18;;;1.45;;
61038;SDS011;46919;45.816;3.104;2023-04-25T07:30:36;4.43;;;1.40;;
61038;SDS011;46919;45.816;3.104;2023-04-25T07:33:02;3.42;;;1.10;;
61038;SDS011;46919;45.816;3.104;2023-04-25T07:35:27;5.70;;;1.27;;
61038;SDS011;46919;45.816;3.104;2023-04-25T07:37:52;4.50;;;1.35;;
61038;SDS011;46919;45.816;3.104;2023-04-25T07:40:18;6.25;;;1.10;;
61038;SDS011;46919;45.816;3.104;2023-04-25T07:42:43;2.85;;;1.20;;
61038;SDS011;46919;45.816;3.104;2023-04-25T07:45:09;2.60;;;1.30;;
61038;SDS011;46919;45.816;3.104;2023-04-25T07:47:35;8.55;;;1.60;;
61038;SDS011;46919;45.816;3.104;2023-04-25T07:50:01;2.97;;;1.10;;
61038;SDS011;46919;45.816;3.104;2023-04-25T07:52:27;5.40;;;1.20;;
61038;SDS011;46919;45.816;3.104;2023-04-25T07:54:52;3.25;;;0.93;;
61038;SDS011;46919;45.816;3.104;2023-04-25T07:57:18;2.45;;;1.10;;
61038;SDS011;46919;45.816;3.104;2023-04-25T07:59:44;2.97;;;1.15;;
61038;SDS011;46919;45.816;3.104;2023-04-25T08:02:10;3.60;;;1.10;;
61038;SDS011;46919;45.816;3.104;2023-04-25T08:04:35;3.17;;;1.20;;
61038;SDS011;46919;45.816;3.104;2023-04-25T08:07:01;5.78;;;1.30;;
61038;SDS011;46919;45.816;3.104;2023-04-25T08:09:26;5.97;;;1.30;;
61038;SDS011;46919;45.816;3.104;2023-04-25T08:11:52;4.38;;;1.30;;
61038;SDS011;46919;45.816;3.104;2023-04-25T08:14:17;5.88;;;1.48;;
61038;SDS011;46919;45.816;3.104;2023-04-25T08:16:42;3.28;;;1.40;;
61038;SDS011;46919;45.816;3.104;2023-04-25T08:19:08;4.47;;;1.48;;
61038;SDS011;46919;45.816;3.104;2023-04-25T08:21:34;5.05;;;1.30;;
61038;SDS011;46919;45.816;3.104;2023-04-25T08:24:00;2.53;;;1.02;;
61038;SDS011;46919;45.816;3.104;2023-04-25T08:26:25;6.10;;;1.20;;
61038;SDS011;46919;45.816;3.104;2023-04-25T08:28:51;4.13;;;1.50;;
61038;SDS011;46919;45.816;3.104;2023-04-25T08:31:16;5.72;;;1.42;;
61038;SDS011;46919;45.816;3.104;2023-04-25T08:33:42;2.90;;;1.23;;
61038;SDS011;46919;45.816;3.104;2023-04-25T08:36:08;2.58;;;1.20;;
61038;SDS011;46919;45.816;3.104;2023-04-25T08:38:33;5.85;;;1.42;;
61038;SDS011;46919;45.816;3.104;2023-04-25T08:40:59;4.75;;;1.20;;
61038;SDS011;46919;45.816;3.104;2023-04-25T08:43:26;4.35;;;1.50;;
61038;SDS011;46919;45.816;3.104;2023-04-25T08:45:54;3.45;;;1.30;;
61038;SDS011;46919;45.816;3.104;2023-04-25T08:48:24;6.00;;;1.30;;
61038;SDS011;46919;45.816;3.104;2023-04-25T08:50:53;6.50;;;1.30;;
61038;SDS011;46919;45.816;3.104;2023-04-25T08:53:30;4.55;;;1.10;;
61038;SDS011;46919;45.816;3.104;2023-04-25T08:55:57;5.43;;;1.10;;
61038;SDS011;46919;45.816;3.104;2023-04-25T08:58:24;4.80;;;1.30;;
61038;SDS011;46919;45.816;3.104;2023-04-25T09:00:50;5.00;;;1.17;;
61038;SDS011;46919;45.816;3.104;2023-04-25T09:03:17;3.75;;;1.45;;
61038;SDS011;46919;45.816;3.104;2023-04-25T09:05:42;7.53;;;1.20;;
61038;SDS011;46919;45.816;3.104;2023-04-25T09:08:08;5.30;;;1.30;;
61038;SDS011;46919;45.816;3.104;2023-04-25T09:10:34;1.35;;;0.90;;
61038;SDS011;46919;45.816;3.104;2023-04-25T09:15:53;6.78;;;1.20;;
61038;SDS011;46919;45.816;3.104;2023-04-25T09:18:27;4.18;;;1.05;;
61038;SDS011;46919;45.816;3.104;2023-04-25T09:20:58;2.60;;;1.00;;
61038;SDS011;46919;45.816;3.104;2023-04-25T09:23:31;5.70;;;1.13;;
61038;SDS011;46919;45.816;3.104;2023-04-25T09:26:06;5.22;;;1.10;;
61038;SDS011;46919;45.816;3.104;2023-04-25T09:28:32;5.13;;;1.33;;
61038;SDS011;46919;45.816;3.104;2023-04-25T09:31:00;6.68;;;1.08;;
61038;SDS011;46919;45.816;3.104;2023-04-25T09:33:32;2.42;;;0.80;;
61038;SDS011;46919;45.816;3.104;2023-04-25T09:36:07;3.08;;;0.90;;
61038;SDS011;46919;45.816;3.104;2023-04-25T09:38:45;6.03;;;1.55;;
61038;SDS011;46919;45.816;3.104;2023-04-25T09:41:13;3.15;;;0.90;;
61038;SDS011;46919;45.816;3.104;2023-04-25T09:43:38;2.63;;;1.17;;
61038;SDS011;46919;45.816;3.104;2023-04-25T09:46:08;2.97;;;0.98;;
61038;SDS011;46919;45.816;3.104;2023-04-25T09:48:35;2.72;;;1.23;;
61038;SDS011;46919;45.816;3.104;2023-04-25T09:51:05;4.72;;;1.77;;
61038;SDS011;46919;45.816;3.104;2023-04-25T09:53:39;2.20;;;0.95;;
61038;SDS011;46919;45.816;3.104;2023-04-25T09:56:07;4.63;;;0.95;;
61038;SDS011;46919;45.816;3.104;2023-04-25T09:58:35;5.43;;;1.20;;
61038;SDS011;46919;45.816;3.104;2023-04-25T10:01:03;3.25;;;1.00;;
61038;SDS011;46919;45.816;3.104;2023-04-25T10:03:31;3.22;;;1.13;;
61038;SDS011;46919;45.816;3.104;2023-04-25T10:06:00;2.67;;;1.00;;
61038;SDS011;46919;45.816;3.104;2023-04-25T10:08:31;3.15;;;0.90;;
61038;SDS011;46919;45.816;3.104;2023-04-25T10:11:02;2.38;;;1.10;;
61038;SDS011;46919;45.816;3.104;2023-04-25T10:13:29;5.53;;;1.33;;
61038;SDS011;46919;45.816;3.104;2023-04-25T10:15:59;3.95;;;1.20;;
61038;SDS011;46919;45.816;3.104;2023-04-25T10:18:26;5.18;;;1.20;;
61038;SDS011;46919;45.816;3.104;2023-04-25T10:21:00;3.88;;;1.13;;
61038;SDS011;46919;45.816;3.104;2023-04-25T10:23:27;3.63;;;1.25;;
61038;SDS011;46919;45.816;3.104;2023-04-25T10:25:54;4.35;;;1.08;;
61038;SDS011;46919;45.816;3.104;2023-04-25T10:28:20;3.17;;;1.00;;
61038;SDS011;46919;45.816;3.104;2023-04-25T10:31:02;3.92;;;1.20;;
61038;SDS011;46919;45.816;3.104;2023-04-25T10:36:21;3.70;;;1.02;;
61038;SDS011;46919;45.816;3.104;2023-04-25T10:38:47;5.60;;;1.30;;
61038;SDS011;46919;45.816;3.104;2023-04-25T10:41:18;5.00;;;1.25;;
61038;SDS011;46919;45.816;3.104;2023-04-25T10:43:45;3.80;;;1.40;;
61038;SDS011;46919;45.816;3.104;2023-04-25T10:46:16;2.95;;;1.20;;
61038;SDS011;46919;45.816;3.104;2023-04-25T10:48:46;4.13;;;1.55;;
61038;SDS011;46919;45.816;3.104;2023-04-25T10:51:23;3.35;;;1.55;;
61038;SDS011;46919;45.816;3.104;2023-04-25T10:56:21;3.17;;;1.30;;
61038;SDS011;46919;45.816;3.104;2023-04-25T10:58:47;4.53;;;1.70;;
61038;SDS011;46919;45.816;3.104;2023-04-25T11:01:14;3.00;;;1.52;;
61038;SDS011;46919;45.816;3.104;2023-04-25T11:03:45;4.13;;;1.30;;
61038;SDS011;46919;45.816;3.104;2023-04-25T11:09:15;3.72;;;1.35;;
61038;SDS011;46919;45.816;3.104;2023-04-25T11:11:41;3.88;;;1.30;;
61038;SDS011;46919;45.816;3.104;2023-04-25T11:14:06;2.50;;;1.10;;
61038;SDS011;46919;45.816;3.104;2023-04-25T11:16:32;3.53;;;1.17;;
61038;SDS011;46919;45.816;3.104;2023-04-25T11:18:58;3.90;;;1.10;;
61038;SDS011;46919;45.816;3.104;2023-04-25T11:21:27;3.75;;;1.20;;
61038;SDS011;46919;45.816;3.104;2023-04-25T11:23:53;3.55;;;1.08;;
61038;SDS011;46919;45.816;3.104;2023-04-25T11:26:19;5.10;;;1.55;;
61038;SDS011;46919;45.816;3.104;2023-04-25T11:28:45;2.85;;;1.17;;
61038;SDS011;46919;45.816;3.104;2023-04-25T11:31:12;3.80;;;1.27;;
61038;SDS011;46919;45.816;3.104;2023-04-25T11:33:37;3.88;;;1.15;;
61038;SDS011;46919;45.816;3.104;2023-04-25T11:36:03;5.03;;;1.35;;
61038;SDS011;46919;45.816;3.104;2023-04-25T11:38:28;2.95;;;1.20;;
61038;SDS011;46919;45.816;3.104;2023-04-25T11:40:54;7.75;;;1.50;;
61038;SDS011;46919;45.816;3.104;2023-04-25T11:43:20;4.00;;;1.38;;
61038;SDS011;46919;45.816;3.104;2023-04-25T11:45:47;3.08;;;1.13;;
61038;SDS011;46919;45.816;3.104;2023-04-25T11:48:17;3.97;;;1.90;;
61038;SDS011;46919;45.816;3.104;2023-04-25T11:50:43;5.03;;;1.80;;
61038;SDS011;46919;45.816;3.104;2023-04-25T11:53:09;4.22;;;1.55;;
61038;SDS011;46919;45.816;3.104;2023-04-25T11:55:35;3.47;;;1.90;;
61038;SDS011;46919;45.816;3.104;2023-04-25T11:58:01;5.13;;;1.27;;
61038;SDS011;46919;45.816;3.104;2023-04-25T12:00:28;3.95;;;1.35;;
61038;SDS011;46919;45.816;3.104;2023-04-25T12:02:55;3.33;;;1.20;;
61038;SDS011;46919;45.816;3.104;2023-04-25T12:05:25;3.78;;;1.50;;
61038;SDS011;46919;45.816;3.104;2023-04-25T12:07:52;3.05;;;1.17;;
61038;SDS011;46919;45.816;3.104;2023-04-25T12:10:18;5.82;;;1.30;;
61038;SDS011;46919;45.816;3.104;2023-04-25T12:12:45;3.28;;;1.20;;
61038;SDS011;46919;45.816;3.104;2023-04-25T12:15:14;3.72;;;1.50;;
61038;SDS011;46919;45.816;3.104;2023-04-25T12:17:44;4.32;;;1.33;;
61038;SDS011;46919;45.816;3.104;2023-04-25T12:20:32;3.38;;;1.40;;
61038;SDS011;46919;45.816;3.104;2023-04-25T12:22:56;3.45;;;1.10;;
61038;SDS011;46919;45.816;3.104;2023-04-25T12:25:41;4.25;;;1.08;;
61038;SDS011;46919;45.816;3.104;2023-04-25T12:33:28;4.07;;;1.35;;
61038;SDS011;46919;45.816;3.104;2023-04-25T12:35:55;3.55;;;1.15;;
61038;SDS011;46919;45.816;3.104;2023-04-25T12:38:29;3.72;;;1.33;;
61038;SDS011;46919;45.816;3.104;2023-04-25T12:40:57;3.95;;;1.20;;
61038;SDS011;46919;45.816;3.104;2023-04-25T12:43:23;4.38;;;1.30;;
61038;SDS011;46919;45.816;3.104;2023-04-25T12:45:49;3.47;;;1.00;;
61038;SDS011;46919;45.816;3.104;2023-04-25T12:48:18;3.22;;;1.17;;
61038;SDS011;46919;45.816;3.104;2023-04-25T12:50:45;2.17;;;0.95;;
61038;SDS011;46919;45.816;3.104;2023-04-25T12:53:13;3.03;;;1.25;;
61038;SDS011;46919;45.816;3.104;2023-04-25T12:55:39;3.95;;;1.10;;
61038;SDS011;46919;45.816;3.104;2023-04-25T12:58:05;5.13;;;1.25;;
61038;SDS011;46919;45.816;3.104;2023-04-25T13:00:30;6.72;;;1.42;;
61038;SDS011;46919;45.816;3.104;2023-04-25T13:02:56;5.72;;;1.25;;
61038;SDS011;46919;45.816;3.104;2023-04-25T13:05:22;3.40;;;1.40;;
61038;SDS011;46919;45.816;3.104;2023-04-25T13:07:47;2.95;;;1.10;;
61038;SDS011;46919;45.816;3.104;2023-04-25T13:10:13;3.53;;;1.23;;
61038;SDS011;46919;45.816;3.104;2023-04-25T13:12:38;4.40;;;1.30;;
61038;SDS011;46919;45.816;3.104;2023-04-25T13:15:04;1.52;;;0.90;;
61038;SDS011;46919;45.816;3.104;2023-04-25T13:17:30;2.05;;;1.05;;
61038;SDS011;46919;45.816;3.104;2023-04-25T13:19:55;5.00;;;1.40;;
61038;SDS011;46919;45.816;3.104;2023-04-25T13:22:20;2.13;;;0.90;;
61038;SDS011;46919;45.816;3.104;2023-04-25T13:24:46;4.47;;;1.63;;
61038;SDS011;46919;45.816;3.104;2023-04-25T13:27:12;2.35;;;1.58;;
61038;SDS011;46919;45.816;3.104;2023-04-25T13:29:38;3.75;;;1.48;;
61038;SDS011;46919;45.816;3.104;2023-04-25T13:32:05;3.90;;;1.33;;
61038;SDS011;46919;45.816;3.104;2023-04-25T13:34:31;3.30;;;1.23;;
61038;SDS011;46919;45.816;3.104;2023-04-25T13:36:56;2.30;;;1.30;;
61038;SDS011;46919;45.816;3.104;2023-04-25T13:39:22;1.70;;;1.10;;
61038;SDS011;46919;45.816;3.104;2023-04-25T13:41:47;3.70;;;1.25;;
61038;SDS011;46919;45.816;3.104;2023-04-25T13:44:12;4.10;;;1.45;;
61038;SDS011;46919;45.816;3.104;2023-04-25T13:46:38;2.38;;;1.10;;
61038;SDS011;46919;45.816;3.104;2023-04-25T13:49:04;5.05;;;1.23;;
61038;SDS011;46919;45.816;3.104;2023-04-25T13:51:30;3.20;;;1.27;;
61038;SDS011;46919;45.816;3.104;2023-04-25T13:53:55;4.18;;;1.20;;
61038;SDS011;46919;45.816;3.104;2023-04-25T13:56:21;3.78;;;1.30;;
61038;SDS011;46919;45.816;3.104;2023-04-25T13:58:48;3.45;;;1.33;;
61038;SDS011;46919;45.816;3.104;2023-04-25T14:01:13;3.13;;;1.20;;
61038;SDS011;46919;45.816;3.104;2023-04-25T14:03:39;6.93;;;1.58;;
61038;SDS011;46919;45.816;3.104;2023-04-25T14:06:05;2.60;;;1.30;;
61038;SDS011;46919;45.816;3.104;2023-04-25T14:08:30;2.67;;;1.00;;
61038;SDS011;46919;45.816;3.104;2023-04-25T14:10:56;3.17;;;1.10;;
61038;SDS011;46919;45.816;3.104;2023-04-25T14:13:21;2.20;;;1.05;;
61038;SDS011;46919;45.816;3.104;2023-04-25T14:15:48;2.38;;;1.15;;
61038;SDS011;46919;45.816;3.104;2023-04-25T14:18:15;2.97;;;1.23;;
61038;SDS011;46919;45.816;3.104;2023-04-25T14:20:40;2.67;;;1.60;;
61038;SDS011;46919;45.816;3.104;2023-04-25T14:23:06;5.57;;;1.98;;
61038;SDS011;46919;45.816;3.104;2023-04-25T14:25:31;4.22;;;1.27;;
61038;SDS011;46919;45.816;3.104;2023-04-25T14:27:57;4.30;;;1.50;;
61038;SDS011;46919;45.816;3.104;2023-04-25T14:30:22;4.72;;;1.27;;
61038;SDS011;46919;45.816;3.104;2023-04-25T14:32:48;3.28;;;1.40;;
61038;SDS011;46919;45.816;3.104;2023-04-25T14:35:14;4.25;;;1.20;;
61038;SDS011;46919;45.816;3.104;2023-04-25T14:37:40;5.47;;;1.50;;
61038;SDS011;46919;45.816;3.104;2023-04-25T14:40:06;2.88;;;1.15;;
61038;SDS011;46919;45.816;3.104;2023-04-25T14:42:35;3.28;;;1.33;;
61038;SDS011;46919;45.816;3.104;2023-04-25T14:45:01;5.07;;;1.55;;
61038;SDS011;46919;45.816;3.104;2023-04-25T14:47:27;4.40;;;1.35;;
61038;SDS011;46919;45.816;3.104;2023-04-25T14:49:52;3.72;;;1.25;;
61038;SDS011;46919;45.816;3.104;2023-04-25T14:52:19;4.22;;;1.80;;
61038;SDS011;46919;45.816;3.104;2023-04-25T14:54:46;2.50;;;1.30;;
61038;SDS011;46919;45.816;3.104;2023-04-25T14:57:11;4.03;;;1.35;;
61038;SDS011;46919;45.816;3.104;2023-04-25T14:59:37;4.57;;;1.30;;